Time;durP1;ratioP1;P1;durP2;ratioP2;P2;SDS_P1;SDS_P2;PMS_P1;PMS_P2;Temp;Humidity;BMP_temperature;BMP_pressure;BME280_temperature;BME280_humidity;BME280_pressure;Samples;Min_cycle;Max_cycle;Signal;HPM_P1;HPM_P2
2021/12/07 00:00:39;;;;;;;31.25;19.77;;;;;;;2.92;90.98;99521.41;1739264;82;20127;-65
2021/12/07 00:03:06;;;;;;;28.87;19.25;;;;;;;2.84;90.96;99527.13;1732819;81;21059;-66
2021/12/07 00:05:32;;;;;;;31.55;19.75;;;;;;;2.83;91.06;99526.31;1717547;82;21154;-67
2021/12/07 00:07:59;;;;;;;33.08;21.07;;;;;;;2.81;90.95;99523.02;1728470;81;20988;-65
2021/12/07 00:10:26;;;;;;;34.13;20.37;;;;;;;2.83;91.02;99530.26;1737060;81;21099;-68
2021/12/07 00:12:52;;;;;;;34.40;21.10;;;;;;;2.87;91.20;99534.22;1737132;82;21066;-65
2021/12/07 00:15:22;;;;;;;29.77;18.95;;;;;;;2.75;91.32;99505.70;1736516;81;21046;-66
2021/12/07 00:17:48;;;;;;;31.77;19.90;;;;;;;2.96;91.41;99527.66;1734445;81;21155;-67
2021/12/07 00:20:17;;;;;;;;;;;;;;;3.00;91.47;99535.09;1738116;81;21049;-65
2021/12/07 00:22:48;;;;;;;29.20;20.57;;;;;;;3.03;91.41;99529.99;1736007;80;20169;-65
2021/12/07 00:25:15;;;;;;;36.27;19.53;;;;;;;3.02;91.49;99530.99;1735424;81;21035;-65
2021/12/07 00:27:42;;;;;;;36.60;21.77;;;;;;;3.05;91.49;99525.39;1734243;82;21998;-64
2021/12/07 00:30:12;;;;;;;30.70;20.80;;;;;;;3.08;91.44;99530.34;1737500;82;21033;-67
2021/12/07 00:32:45;;;;;;;34.50;20.30;;;;;;;3.11;91.34;99537.44;1704849;84;21467;-72
2021/12/07 00:37:47;;;;;;;38.87;21.57;;;;;;;3.14;91.47;99529.70;1670925;85;21081;-66
2021/12/07 00:40:17;;;;;;;33.80;21.77;;;;;;;3.16;91.40;99523.77;1726057;82;21033;-66
2021/12/07 00:42:47;;;;;;;38.53;20.30;;;;;;;3.21;91.36;99522.81;1725633;81;21027;-64
2021/12/07 00:45:19;;;;;;;32.57;19.97;;;;;;;3.24;91.36;99526.45;1733130;82;21079;-67
2021/12/07 00:47:46;;;;;;;37.70;21.83;;;;;;;3.26;91.26;99526.30;1735374;81;21057;-67
2021/12/07 00:50:13;;;;;;;31.73;20.20;;;;;;;3.26;91.26;99527.11;1734585;82;21087;-67
2021/12/07 00:52:40;;;;;;;33.57;19.97;;;;;;;3.28;91.19;99521.19;1737426;82;21050;-66
2021/12/07 00:55:14;;;;;;;33.63;20.00;;;;;;;3.27;91.16;99527.93;1737913;82;21602;-65
2021/12/07 00:57:42;;;;;;;36.50;20.03;;;;;;;3.28;91.04;99523.83;1730088;81;21482;-65
2021/12/07 01:00:15;;;;;;;33.30;19.03;;;;;;;3.25;90.71;99528.59;1733663;81;21316;-67
2021/12/07 01:02:42;;;;;;;38.77;20.33;;;;;;;3.19;90.51;99535.82;1736994;82;21094;-66
2021/12/07 01:05:17;;;;;;;37.87;22.70;;;;;;;3.11;90.39;99535.30;1724652;82;21013;-66
2021/12/07 01:08:38;;;;;;;31.50;20.33;;;;;;;3.09;90.67;99523.61;1731891;82;21041;-66
2021/12/07 01:26:25;;;;;;;30.93;20.10;;;;;;;3.24;91.00;99529.55;1696920;83;20967;-66
2021/12/07 01:28:51;;;;;;;31.55;20.05;;;;;;;3.27;90.95;99526.61;1693140;83;21014;-67
2021/12/07 01:31:29;;;;;;;39.17;23.73;;;;;;;3.29;90.89;99517.55;1671542;84;21101;-67
2021/12/07 01:45:09;;;;;;;38.40;21.47;;;;;;;3.37;90.89;99529.09;1708704;82;21517;-67
2021/12/07 01:47:32;;;;;;;33.27;20.90;;;;;;;3.39;90.82;99535.03;1721102;82;21037;-68
2021/12/07 02:00:33;;;;;;;40.03;23.83;;;;;;;3.48;90.31;99537.55;1712465;82;20985;-65
2021/12/07 02:02:59;;;;;;;34.67;21.27;;;;;;;3.50;90.21;99538.67;1689668;84;21110;-67
2021/12/07 02:05:27;;;;;;;34.37;21.23;;;;;;;3.54;90.27;99542.63;1694399;83;21081;-64
2021/12/07 02:07:54;;;;;;;36.17;23.50;;;;;;;3.56;90.02;99536.73;1731580;82;21525;-65
2021/12/07 02:10:25;;;;;;;34.47;22.13;;;;;;;3.58;89.92;99529.48;1721353;82;21109;-67
2021/12/07 02:12:51;;;;;;;33.77;20.97;;;;;;;3.58;89.72;99527.31;1681296;83;21017;-67
2021/12/07 02:15:23;;;;;;;32.03;20.90;;;;;;;3.58;89.66;99523.36;1678173;84;21037;-66
2021/12/07 02:17:51;;;;;;;32.97;20.57;;;;;;;3.56;89.50;99522.70;1700874;83;21076;-66
2021/12/07 02:20:20;;;;;;;32.30;19.70;;;;;;;3.51;89.34;99537.70;1707472;83;21029;-67
2021/12/07 02:22:46;;;;;;;34.27;20.03;;;;;;;3.47;89.37;99537.20;1695449;83;21003;-66
2021/12/07 02:25:16;;;;;;;35.73;21.13;;;;;;;3.47;89.48;99527.98;1699971;83;21002;-66
2021/12/07 02:27:45;;;;;;;32.60;21.57;;;;;;;3.49;89.55;99527.82;1699667;83;21633;-67
2021/12/07 02:30:16;;;;;;;35.70;21.40;;;;;;;3.50;89.63;99529.45;1707409;83;21018;-66
2021/12/07 02:32:44;;;;;;;38.70;23.80;;;;;;;3.53;89.71;99538.86;1703886;83;21501;-67
2021/12/07 02:35:21;;;;;;;34.03;21.43;;;;;;;3.58;89.96;99549.72;1733642;81;21015;-66
2021/12/07 02:37:41;;;;;;;36.83;21.70;;;;;;;3.63;90.00;99554.02;1735254;81;21547;-67
2021/12/07 02:40:09;;;;;;;40.38;22.42;;;;;;;3.66;89.92;99564.24;1663059;85;21082;-69
2021/12/07 02:42:36;;;;;;;35.57;23.27;;;;;;;3.67;89.82;99562.77;1704438;83;21049;-67
2021/12/07 02:45:06;;;;;;;40.65;24.20;;;;;;;3.70;89.84;99552.38;1674701;85;21118;-66
2021/12/07 02:47:35;;;;;;;41.47;22.97;;;;;;;3.70;89.58;99549.25;1726442;82;21552;-68
2021/12/07 02:50:02;;;;;;;36.00;23.30;;;;;;;3.68;89.48;99547.27;1731810;82;20959;-66
2021/12/07 02:52:31;;;;;;;34.53;22.50;;;;;;;3.67;89.31;99544.80;1717976;81;21569;-68
2021/12/07 02:54:57;;;;;;;41.70;25.57;;;;;;;3.66;89.30;99541.34;1708816;82;21023;-66
2021/12/07 02:57:26;;;;;;;39.80;24.40;;;;;;;3.66;89.22;99533.44;1672285;83;21123;-69
2021/12/07 03:00:05;;;;;;;42.90;23.10;;;;;;;3.69;89.35;99543.66;1690645;84;21007;-67
2021/12/07 03:02:28;;;;;;;38.57;22.63;;;;;;;3.71;89.16;99552.70;1687918;84;20978;-66
2021/12/07 03:05:03;;;;;;;36.23;22.90;;;;;;;3.67;89.10;99545.64;1686387;83;21238;-65
2021/12/07 03:26:47;;;;;;;29.73;17.13;;;;;;;3.39;89.74;99528.44;1708472;82;21058;-65
2021/12/07 03:29:13;;;;;;;28.67;19.23;;;;;;;3.29;90.26;99533.36;1706283;82;21125;-66
2021/12/07 03:31:40;;;;;;;;;;;;;;;3.25;90.62;99526.77;1707227;83;21373;-65
2021/12/07 03:34:06;;;;;;;28.27;17.87;;;;;;;3.28;90.96;99528.27;1714503;81;20172;-65
2021/12/07 03:36:36;;;;;;;26.40;15.87;;;;;;;3.29;91.24;99526.77;1743815;82;21053;-65
2021/12/07 03:39:06;;;;;;;27.37;17.93;;;;;;;3.34;91.20;99533.39;1739968;81;21050;-65
2021/12/07 03:41:33;;;;;;;26.60;17.20;;;;;;;3.32;91.07;99521.70;1733059;81;21025;-65
2021/12/07 03:44:00;;;;;;;21.93;14.90;;;;;;;3.35;91.17;99535.02;1704610;83;21207;-65
2021/12/07 03:46:27;;;;;;;27.30;18.50;;;;;;;3.38;91.19;99543.94;1715981;80;21074;-66
2021/12/07 03:48:56;;;;;;;29.53;18.40;;;;;;;3.39;90.95;99550.84;1712141;82;21065;-64
2021/12/07 03:51:24;;;;;;;28.90;17.90;;;;;;;3.37;90.91;99552.80;1721119;82;21490;-65
2021/12/07 03:53:50;;;;;;;;;;;;;;;3.37;90.70;99563.34;1735232;82;21485;-66
2021/12/07 03:56:19;;;;;;;31.17;18.00;;;;;;;3.31;90.65;99561.70;1689786;82;20163;-66
2021/12/07 03:58:45;;;;;;;25.52;18.15;;;;;;;3.25;90.79;99566.28;1694638;83;21017;-67
2021/12/07 04:01:12;;;;;;;26.02;17.15;;;;;;;3.21;90.76;99562.31;1688065;83;21073;-64
2021/12/07 04:03:41;;;;;;;27.63;20.20;;;;;;;3.19;90.88;99564.79;1687256;83;21114;-66
2021/12/07 04:06:08;;;;;;;27.10;18.60;;;;;;;3.17;90.90;99570.71;1685251;84;20991;-65
2021/12/07 04:08:38;;;;;;;28.03;19.67;;;;;;;3.18;91.09;99576.30;1680857;83;21065;-65
2021/12/07 04:11:05;;;;;;;29.03;18.93;;;;;;;3.21;91.25;99572.85;1689625;83;21040;-68
2021/12/07 04:13:33;;;;;;;24.53;18.40;;;;;;;3.26;91.17;99572.39;1673363;84;21053;-65
2021/12/07 04:16:00;;;;;;;20.30;15.03;;;;;;;3.30;91.24;99573.72;1666527;84;21097;-64
2021/12/07 04:18:28;;;;;;;23.27;15.87;;;;;;;3.33;91.04;99585.73;1678190;83;21250;-65
2021/12/07 04:20:56;;;;;;;23.10;16.13;;;;;;;3.29;90.76;99582.09;1686107;84;21034;-66
2021/12/07 04:23:23;;;;;;;19.77;14.67;;;;;;;3.31;90.92;99592.47;1680504;83;21081;-66
2021/12/07 04:25:49;;;;;;;;;;;;;;;3.35;90.88;99599.56;1697810;83;20997;-68
2021/12/07 04:28:15;;;;;;;19.60;13.97;;;;;;;3.37;90.68;99591.00;1673585;83;20172;-70
2021/12/07 04:30:43;;;;;;;19.98;15.45;;;;;;;3.34;90.83;99588.20;1684637;83;21065;-66
2021/12/07 04:33:13;;;;;;;18.77;14.50;;;;;;;3.38;90.84;99585.58;1688361;83;21097;-65
2021/12/07 04:35:45;;;;;;;17.20;13.20;;;;;;;3.43;90.69;99587.75;1694675;83;21017;-68
2021/12/07 04:38:13;;;;;;;20.67;14.63;;;;;;;3.46;90.49;99584.28;1694840;83;21497;-66
2021/12/07 04:40:40;;;;;;;15.30;13.00;;;;;;;3.45;90.18;99587.91;1697574;83;21010;-69
2021/12/07 04:43:08;;;;;;;16.00;12.17;;;;;;;3.44;90.03;99596.78;1699205;83;21070;-67
2021/12/07 04:59:06;;;;;;;16.40;14.70;;;;;;;3.40;88.91;99617.86;1686210;83;21089;-64
2021/12/07 05:01:34;;;;;;;16.10;14.10;;;;;;;3.40;89.08;99624.94;1704937;83;20959;-65
2021/12/07 05:04:08;;;;;;;;;;;;;;;3.41;89.07;99615.57;1709886;82;21053;-65
2021/12/07 05:06:32;;;;;;;18.60;14.57;;;;;;;3.45;89.08;99607.67;1707063;83;20118;-65
2021/12/07 05:09:22;;;;;;;19.13;15.30;;;;;;;3.38;88.42;99605.84;1710538;83;21018;-64
2021/12/07 05:11:49;;;;;;;19.47;14.43;;;;;;;3.27;88.54;99614.84;1708508;81;21096;-64
2021/12/07 05:24:25;;;;;;;15.77;13.37;;;;;;;3.27;89.18;99634.10;1707199;81;21099;-62
2021/12/07 05:37:48;;;;;;;14.73;11.47;;;;;;;3.33;88.67;99606.30;1674721;83;21120;-63
2021/12/07 05:40:32;;;;;;;12.67;11.40;;;;;;;3.26;88.47;99613.22;1674036;83;21079;-62
2021/12/07 05:43:00;;;;;;;15.23;12.53;;;;;;;3.17;88.96;99620.25;1675265;83;21892;-63
2021/12/07 05:45:35;;;;;;;15.70;11.20;;;;;;;3.12;89.37;99619.88;1710847;83;21078;-62
2021/12/07 05:48:04;;;;;;;13.40;11.83;;;;;;;3.24;89.43;99637.55;1715276;82;21077;-64
2021/12/07 05:50:35;;;;;;;13.60;11.23;;;;;;;3.28;89.51;99637.08;1718980;82;21046;-65
2021/12/07 05:53:04;;;;;;;15.27;12.33;;;;;;;3.35;89.33;99640.39;1719218;82;21002;-63
2021/12/07 05:55:30;;;;;;;13.57;11.43;;;;;;;3.38;89.22;99640.91;1705675;82;21074;-62
2021/12/07 05:57:57;;;;;;;12.82;10.90;;;;;;;3.41;88.90;99631.38;1691483;83;21018;-62
2021/12/07 06:00:27;;;;;;;10.58;9.48;;;;;;;3.41;88.85;99634.02;1685018;84;21169;-61
2021/12/07 06:02:59;;;;;;;11.90;10.30;;;;;;;3.46;88.66;99626.94;1686412;84;21112;-63
2021/12/07 06:05:28;;;;;;;11.90;10.00;;;;;;;3.43;88.17;99608.83;1670691;84;21055;-64
2021/12/07 06:07:55;;;;;;;16.53;12.67;;;;;;;3.36;87.75;99601.23;1671385;85;21070;-63
2021/12/07 06:10:23;;;;;;;14.70;11.03;;;;;;;3.27;87.75;99598.55;1671411;84;21003;-63
2021/12/07 06:12:49;;;;;;;14.20;11.27;;;;;;;3.18;87.60;99596.86;1668847;84;21108;-63
2021/12/07 06:15:20;;;;;;;16.32;12.25;;;;;;;3.06;87.91;99606.05;1667764;84;21029;-65
2021/12/07 06:17:46;;;;;;;17.47;12.23;;;;;;;3.02;88.25;99607.34;1665754;85;21496;-65
2021/12/07 06:20:14;;;;;;;16.50;13.00;;;;;;;2.97;88.32;99603.85;1666701;84;21578;-64
2021/12/07 06:22:42;;;;;;;14.90;12.57;;;;;;;2.97;88.56;99609.12;1668946;84;21054;-65
2021/12/07 06:25:10;;;;;;;18.30;13.68;;;;;;;2.99;88.87;99603.70;1685360;84;21565;-66
2021/12/07 06:27:38;;;;;;;15.70;12.27;;;;;;;2.99;88.86;99619.49;1685880;84;21585;-64
2021/12/07 06:30:08;;;;;;;16.40;13.83;;;;;;;2.95;88.52;99615.53;1688581;84;21181;-67
2021/12/07 06:32:34;;;;;;;13.37;11.57;;;;;;;2.87;88.86;99625.53;1676663;84;21461;-65
2021/12/07 06:35:00;;;;;;;17.42;13.75;;;;;;;2.84;89.08;99625.33;1662110;83;21105;-65
2021/12/07 06:37:27;;;;;;;18.85;14.35;;;;;;;2.84;89.34;99624.02;1711487;82;21039;-65
2021/12/07 06:39:53;;;;;;;13.68;11.65;;;;;;;2.87;89.45;99624.21;1710725;82;20990;-64
2021/12/07 06:42:20;;;;;;;15.78;11.55;;;;;;;2.87;89.55;99631.61;1711666;82;21097;-64
2021/12/07 06:44:48;;;;;;;14.50;10.43;;;;;;;2.87;89.22;99636.88;1705008;82;21030;-67
2021/12/07 06:47:15;;;;;;;16.23;12.20;;;;;;;2.77;88.88;99644.53;1692986;83;21320;-65
2021/12/07 06:49:41;;;;;;;14.23;11.22;;;;;;;2.72;89.51;99640.56;1692775;83;21031;-65
2021/12/07 06:52:08;;;;;;;13.17;9.40;;;;;;;2.76;89.88;99648.98;1657284;85;21180;-65
2021/12/07 06:54:36;;;;;;;12.30;9.95;;;;;;;2.79;89.42;99645.20;1699420;83;21173;-66
2021/12/07 06:57:04;;;;;;;13.20;10.87;;;;;;;2.77;89.34;99645.38;1697275;82;21037;-64
2021/12/07 06:59:30;;;;;;;14.57;11.70;;;;;;;2.72;89.39;99659.48;1690563;83;21510;-65
2021/12/07 07:01:56;;;;;;;12.85;9.78;;;;;;;2.72;89.65;99659.48;1702956;82;21639;-67
2021/12/07 07:04:22;;;;;;;20.08;10.15;;;;;;;2.70;89.66;99664.08;1708528;82;21082;-71
2021/12/07 07:06:50;;;;;;;11.48;9.38;;;;;;;2.70;89.84;99667.52;1702854;82;21058;-72
2021/12/07 07:09:17;;;;;;;12.07;9.47;;;;;;;2.77;90.01;99672.16;1707096;82;21518;-65
2021/12/07 07:11:44;;;;;;;;;;;;;;;2.76;89.38;99673.98;1712840;82;21066;-64
2021/12/07 07:14:10;;;;;;;12.40;9.63;;;;;;;2.70;89.22;99675.92;1710889;82;20129;-66
2021/12/07 07:16:36;;;;;;;10.35;8.60;;;;;;;2.58;89.40;99677.12;1709719;82;21027;-66
2021/12/07 07:19:02;;;;;;;10.88;8.15;;;;;;;2.54;89.59;99680.55;1708983;82;21077;-66
2021/12/07 07:21:29;;;;;;;;;;;;;;;2.50;89.85;99676.58;1704092;82;21554;-67
2021/12/07 07:23:55;;;;;;;12.57;9.53;;;;;;;2.51;89.96;99679.56;1705046;82;20142;-67
2021/12/07 07:26:22;;;;;;;8.65;6.83;;;;;;;2.48;90.31;99674.09;1694258;83;21021;-67
2021/12/07 07:28:48;;;;;;;8.70;6.90;;;;;;;2.51;90.02;99676.93;1701408;83;20994;-67
2021/12/07 07:31:14;;;;;;;8.30;7.42;;;;;;;2.53;90.19;99683.68;1704064;83;21174;-65
2021/12/07 07:33:41;;;;;;;9.28;7.35;;;;;;;2.59;90.11;99693.27;1700317;81;21553;-66
2021/12/07 07:36:08;;;;;;;8.90;6.37;;;;;;;2.60;89.75;99690.48;1687327;83;21070;-66
2021/12/07 07:38:34;;;;;;;12.13;7.47;;;;;;;2.59;89.67;99695.90;1693480;83;21490;-64
2021/12/07 07:41:01;;;;;;;6.92;6.22;;;;;;;2.60;89.71;99701.02;1699071;83;21056;-66
2021/12/07 07:43:29;;;;;;;6.40;5.53;;;;;;;2.60;89.83;99698.38;1700191;83;21348;-66
2021/12/07 07:45:59;;;;;;;7.70;6.90;;;;;;;2.62;89.98;99703.00;1680910;82;21561;-67
2021/12/07 07:48:25;;;;;;;9.58;7.47;;;;;;;2.63;89.83;99709.90;1690233;83;21065;-65
2021/12/07 07:50:52;;;;;;;6.65;5.12;;;;;;;2.62;89.94;99699.52;1693238;83;20990;-66
2021/12/07 07:53:20;;;;;;;6.70;5.27;;;;;;;2.46;90.04;99672.61;1696159;83;21050;-65
2021/12/07 07:55:46;;;;;;;6.13;5.10;;;;;;;2.67;89.45;99704.66;1692299;83;21024;-65
2021/12/07 07:58:13;;;;;;;5.53;4.97;;;;;;;2.64;89.03;99702.85;1705692;83;21140;-67
2021/12/07 08:00:42;;;;;;;6.20;5.60;;;;;;;2.62;89.18;99704.78;1693447;83;21146;-66
2021/12/07 08:03:09;;;;;;;5.97;5.37;;;;;;;2.59;88.97;99699.84;1692283;83;21074;-66
2021/12/07 08:05:36;;;;;;;6.23;5.63;;;;;;;2.56;89.11;99692.25;1690673;83;21053;-66
2021/12/07 08:08:03;;;;;;;5.55;5.05;;;;;;;2.56;89.18;99700.95;1694805;83;21034;-68
2021/12/07 08:10:30;;;;;;;5.47;4.97;;;;;;;2.55;88.86;99699.81;1695340;83;21044;-67
2021/12/07 08:13:00;;;;;;;6.37;5.67;;;;;;;2.55;88.52;99700.64;1695623;83;21107;-65
2021/12/07 08:15:30;;;;;;;13.00;4.97;;;;;;;2.53;88.69;99699.47;1685316;83;20994;-67
2021/12/07 08:17:57;;;;;;;5.30;4.80;;;;;;;2.51;88.51;99701.92;1686957;83;21573;-66
2021/12/07 08:20:25;;;;;;;5.50;4.50;;;;;;;2.47;88.91;99683.48;1696740;83;21172;-66
2021/12/07 08:22:52;;;;;;;5.17;4.67;;;;;;;2.45;88.70;99690.67;1691413;83;21010;-65
2021/12/07 08:25:19;;;;;;;4.97;4.47;;;;;;;2.42;88.83;99694.44;1657751;85;21078;-66
2021/12/07 08:27:45;;;;;;;6.60;5.43;;;;;;;2.38;89.19;99690.96;1694074;83;21012;-67
2021/12/07 08:30:15;;;;;;;4.90;4.40;;;;;;;2.40;89.38;99683.25;1694027;84;21060;-66
2021/12/07 08:32:45;;;;;;;6.27;5.10;;;;;;;2.46;89.45;99677.38;1693879;83;21030;-66
2021/12/07 08:35:17;;;;;;;5.50;5.00;;;;;;;2.50;89.47;99678.71;1694497;83;21664;-66
2021/12/07 08:37:46;;;;;;;4.77;3.50;;;;;;;2.56;89.29;99686.98;1693707;83;21010;-66
2021/12/07 08:40:18;;;;;;;7.43;4.17;;;;;;;2.57;88.86;99697.36;1691981;83;21076;-66
2021/12/07 08:42:45;;;;;;;4.17;3.83;;;;;;;2.54;88.57;99702.91;1694887;83;21072;-66
2021/12/07 08:45:11;;;;;;;;;;;;;;;2.50;88.70;99698.44;1701407;82;21002;-66
2021/12/07 08:47:37;;;;;;;3.60;3.33;;;;;;;2.49;88.83;99698.13;1711245;82;20117;-67
2021/12/07 08:50:07;;;;;;;;;;;;;;;2.48;89.22;99702.22;1710430;82;21103;-67
2021/12/07 08:52:34;;;;;;;3.20;2.93;;;;;;;2.51;89.22;99700.61;1709761;82;20213;-66
2021/12/07 09:00:34;;;;;;;4.17;3.77;;;;;;;2.28;89.28;99701.53;1709047;82;21080;-66
2021/12/07 09:03:01;;;;;;;4.13;3.77;;;;;;;2.28;89.57;99702.84;1711236;82;21819;-67
2021/12/07 09:05:27;;;;;;;4.42;4.03;;;;;;;2.30;89.65;99706.19;1709894;82;21462;-66
2021/12/07 09:07:53;;;;;;;5.35;4.85;;;;;;;2.35;89.77;99702.59;1711585;82;21054;-66
2021/12/07 09:10:20;;;;;;;5.22;3.95;;;;;;;2.35;89.52;99696.02;1710883;82;21045;-67
2021/12/07 09:12:47;;;;;;;6.47;5.80;;;;;;;2.36;89.79;99691.61;1707011;82;21044;-66
2021/12/07 09:15:14;;;;;;;9.23;6.20;;;;;;;2.40;89.68;99677.17;1709276;83;21089;-66
2021/12/07 09:17:41;;;;;;;16.07;6.07;;;;;;;2.44;89.69;99675.88;1711380;82;21086;-66
2021/12/07 09:20:15;;;;;;;7.58;6.78;;;;;;;2.49;89.65;99678.39;1711880;83;21030;-66
2021/12/07 09:22:39;;;;;;;6.47;5.87;;;;;;;2.49;89.26;99667.05;1711000;81;21033;-65
2021/12/07 09:25:06;;;;;;;6.33;4.55;;;;;;;2.45;89.07;99674.42;1709046;82;21089;-66
2021/12/07 09:27:33;;;;;;;4.90;4.50;;;;;;;2.37;88.97;99671.70;1710559;82;21025;-67
2021/12/07 09:29:59;;;;;;;5.28;4.60;;;;;;;2.30;89.16;99670.18;1709598;82;21014;-68
2021/12/07 09:32:25;;;;;;;6.50;5.10;;;;;;;2.30;89.57;99666.23;1708646;82;21620;-67
2021/12/07 09:34:51;;;;;;;4.72;4.22;;;;;;;2.27;89.35;99663.90;1711618;82;21021;-67
2021/12/07 09:37:17;;;;;;;4.65;4.25;;;;;;;2.27;89.81;99661.27;1711958;82;21482;-66
2021/12/07 09:39:43;;;;;;;4.00;3.70;;;;;;;2.31;90.10;99662.61;1707970;82;20995;-65
2021/12/07 09:42:10;;;;;;;3.95;3.65;;;;;;;2.39;90.51;99660.54;1706437;82;21331;-67
2021/12/07 09:44:36;;;;;;;;;;;;;;;2.49;90.54;99662.61;1711022;82;21574;-67
2021/12/07 09:47:02;;;;;;;3.97;3.67;;;;;;;2.52;89.21;99663.63;1670704;84;20117;-66
2021/12/07 09:49:29;;;;;;;3.87;3.45;;;;;;;2.44;89.41;99662.73;1700250;82;21526;-66
2021/12/07 09:51:55;;;;;;;;;;;;;;;2.39;88.79;99651.83;1704126;82;20959;-65
2021/12/07 09:54:21;;;;;;;3.97;3.67;;;;;;;2.29;89.04;99645.34;1709521;82;20370;-67
2021/12/07 09:56:48;;;;;;;5.22;4.72;;;;;;;2.17;89.38;99654.42;1710437;82;20962;-65
2021/12/07 09:59:16;;;;;;;4.50;4.10;;;;;;;2.11;89.66;99654.55;1712195;82;21022;-66
2021/12/07 10:01:44;;;;;;;5.53;4.50;;;;;;;2.12;90.19;99652.27;1695941;82;21025;-65
2021/12/07 10:04:10;;;;;;;5.78;5.05;;;;;;;2.10;90.14;99652.91;1707338;82;21053;-66
2021/12/07 10:06:38;;;;;;;5.28;4.78;;;;;;;2.09;90.62;99648.14;1710049;82;21034;-66
2021/12/07 10:09:05;;;;;;;6.20;5.70;;;;;;;2.16;90.92;99642.27;1710766;82;21488;-65
2021/12/07 10:11:33;;;;;;;6.20;5.60;;;;;;;2.17;90.10;99654.42;1704770;81;21041;-67
2021/12/07 10:13:59;;;;;;;6.30;5.67;;;;;;;2.14;90.46;99662.95;1709795;82;21060;-68
2021/12/07 10:16:26;;;;;;;9.90;5.83;;;;;;;2.11;90.05;99658.48;1710388;82;21014;-66
2021/12/07 10:18:53;;;;;;;6.47;5.55;;;;;;;2.09;90.53;99664.38;1711270;82;21026;-66
2021/12/07 10:21:30;;;;;;;6.47;5.17;;;;;;;2.07;90.03;99673.77;1711277;82;21042;-66
2021/12/07 10:24:07;;;;;;;5.43;4.87;;;;;;;2.00;89.94;99668.76;1707736;82;21011;-65
2021/12/07 10:26:37;;;;;;;6.53;5.27;;;;;;;1.93;90.19;99666.37;1712624;82;21030;-67
2021/12/07 10:29:14;;;;;;;5.23;4.73;;;;;;;1.87;90.55;99671.74;1711964;82;21475;-65
2021/12/07 10:31:45;;;;;;;5.28;4.78;;;;;;;1.85;90.86;99675.02;1712818;82;21388;-66
2021/12/07 10:34:19;;;;;;;6.17;5.57;;;;;;;1.81;90.78;99674.13;1714132;81;21057;-66
2021/12/07 10:36:52;;;;;;;7.00;5.60;;;;;;;1.76;90.93;99673.27;1712764;82;21030;-68
2021/12/07 10:39:24;;;;;;;8.03;5.47;;;;;;;1.74;91.34;99664.21;1711248;82;21053;-66
2021/12/07 10:42:04;;;;;;;5.10;4.63;;;;;;;1.73;91.51;99664.35;1714066;82;21017;-66
2021/12/07 10:44:34;;;;;;;6.93;5.30;;;;;;;1.65;91.43;99653.27;1710712;82;21557;-67
2021/12/07 10:47:08;;;;;;;6.73;5.30;;;;;;;1.57;91.79;99646.62;1714021;82;21038;-67
2021/12/07 10:49:51;;;;;;;5.77;4.33;;;;;;;1.53;92.16;99644.77;1706389;82;21094;-66
2021/12/07 10:52:42;;;;;;;5.27;4.77;;;;;;;1.52;92.52;99648.36;1704038;82;21133;-67
2021/12/07 10:55:25;;;;;;;5.63;4.77;;;;;;;1.52;92.61;99658.05;1711544;81;21577;-67
2021/12/07 10:57:59;;;;;;;5.30;4.37;;;;;;;1.49;92.67;99658.36;1710344;82;21529;-66
2021/12/07 11:02:14;;;;;;;5.20;4.70;;;;;;;1.46;92.86;99663.40;1774820;79;22257;-65
2021/12/07 11:04:43;;;;;;;4.60;4.23;;;;;;;1.41;92.93;99659.56;1732090;81;21549;-67
2021/12/07 11:07:18;;;;;;;6.10;5.53;;;;;;;1.40;93.11;99671.05;1734115;81;21010;-68
2021/12/07 11:10:14;;;;;;;5.40;4.90;;;;;;;1.41;93.20;99676.62;1737345;81;21509;-66
2021/12/07 11:12:59;;;;;;;5.07;4.67;;;;;;;1.42;93.20;99672.55;1727207;80;21088;-68
2021/12/07 11:15:23;;;;;;;6.37;5.77;;;;;;;1.40;93.05;99678.93;1724378;81;21110;-65
2021/12/07 11:17:47;;;;;;;7.77;6.97;;;;;;;1.42;93.35;99676.48;1731811;81;21121;-67
2021/12/07 11:20:13;;;;;;;7.53;6.87;;;;;;;1.47;93.44;99675.58;1731585;81;21007;-67
2021/12/07 11:22:43;;;;;;;;;;;;;;;1.51;93.19;99676.11;1731611;81;21021;-65
2021/12/07 11:25:21;;;;;;;6.00;4.77;;;;;;;1.54;93.20;99679.73;1725384;81;20164;-65
2021/12/07 11:30:33;;;;;;;4.03;3.50;;;;;;;1.44;92.02;99686.36;1724019;81;21664;-66
2021/12/07 11:33:01;;;;;;;4.05;3.75;;;;;;;1.40;92.08;99676.30;1749169;81;21028;-66
2021/12/07 11:35:34;;;;;;;3.03;2.83;;;;;;;1.37;92.47;99666.90;1733427;80;20984;-67
2021/12/07 11:38:05;;;;;;;2.70;2.50;;;;;;;1.16;92.67;99625.95;1728106;81;21634;-65
2021/12/07 11:40:38;;;;;;;3.53;2.20;;;;;;;1.34;92.62;99644.39;1721238;81;22098;-66
2021/12/07 11:43:18;;;;;;;2.70;2.33;;;;;;;1.30;92.67;99635.63;1727475;81;21033;-66
2021/12/07 11:45:47;;;;;;;2.57;2.37;;;;;;;1.31;92.96;99645.98;1703135;81;21125;-66
2021/12/07 11:48:13;;;;;;;2.80;2.57;;;;;;;1.33;92.93;99651.92;1654638;86;21024;-66
2021/12/07 11:50:47;;;;;;;2.45;2.25;;;;;;;1.32;92.73;99648.97;1656225;85;21045;-65
2021/12/07 11:53:19;;;;;;;2.37;2.00;;;;;;;1.29;92.81;99654.50;1669462;85;21065;-68
2021/12/07 11:55:52;;;;;;;1.43;1.20;;;;;;;1.22;92.81;99652.11;1656843;84;21137;-67
2021/12/07 11:58:20;;;;;;;2.10;1.90;;;;;;;1.20;92.90;99655.86;1654835;85;21386;-66
2021/12/07 12:00:51;;;;;;;2.17;1.97;;;;;;;1.21;93.19;99645.22;1661104;85;21011;-67
2021/12/07 12:03:22;;;;;;;2.87;2.27;;;;;;;1.20;93.33;99640.11;1677417;83;21058;-66
2021/12/07 12:05:50;;;;;;;2.30;1.83;;;;;;;1.22;93.47;99652.60;1684659;83;21061;-65
2021/12/07 12:08:20;;;;;;;2.47;1.90;;;;;;;1.15;93.33;99654.50;1688240;83;21083;-67
2021/12/07 12:10:51;;;;;;;3.17;2.17;;;;;;;1.16;93.48;99661.88;1748245;80;20990;-67
2021/12/07 12:13:46;;;;;;;2.10;2.00;;;;;;;1.18;93.71;99669.12;1681361;83;21105;-67
2021/12/07 12:16:42;;;;;;;1.87;1.77;;;;;;;1.22;93.29;99672.29;1681992;84;21303;-65
2021/12/07 12:19:43;;;;;;;3.30;3.00;;;;;;;1.19;93.20;99678.67;1684590;84;21656;-66
2021/12/07 12:22:33;;;;;;;4.13;3.73;;;;;;;1.15;93.38;99675.99;1617432;87;21087;-66
2021/12/07 12:25:06;;;;;;;3.13;2.40;;;;;;;1.20;93.87;99686.05;1645223;85;21050;-64
2021/12/07 12:27:35;;;;;;;2.73;2.53;;;;;;;1.24;93.63;99686.09;1628028;87;21008;-66
2021/12/07 12:30:24;;;;;;;3.03;2.83;;;;;;;1.26;93.61;99693.34;1622971;86;21050;-66
2021/12/07 12:33:04;;;;;;;3.50;3.20;;;;;;;1.29;93.54;99700.94;1631950;86;21019;-66
2021/12/07 12:35:40;;;;;;;3.50;3.20;;;;;;;1.27;93.49;99698.45;1623493;86;21031;-66
2021/12/07 12:38:21;;;;;;;3.83;3.53;;;;;;;1.28;93.32;99700.58;1621562;87;22317;-65
2021/12/07 12:41:00;;;;;;;4.47;3.97;;;;;;;1.26;93.31;99700.75;1619352;87;21083;-66
2021/12/07 12:43:51;;;;;;;4.20;3.80;;;;;;;1.29;93.66;99697.82;1625824;87;21092;-65
2021/12/07 12:46:27;;;;;;;5.77;5.23;;;;;;;1.35;93.81;99695.11;1629655;86;21581;-66
2021/12/07 12:48:58;;;;;;;4.80;4.40;;;;;;;1.39;93.77;99699.09;1692959;83;20983;-65
2021/12/07 12:51:31;;;;;;;5.50;4.80;;;;;;;1.45;93.82;99684.09;1689191;83;21031;-67
2021/12/07 12:53:59;;;;;;;3.73;3.27;;;;;;;1.46;93.39;99675.72;1699938;83;21090;-65
2021/12/07 12:56:30;;;;;;;4.47;3.98;;;;;;;1.38;93.11;99679.07;1710092;83;21032;-67
2021/12/07 12:59:08;;;;;;;4.63;4.13;;;;;;;1.37;93.24;99677.41;1685917;83;20990;-66
2021/12/07 13:01:39;;;;;;;4.33;3.27;;;;;;;1.37;93.39;99676.09;1664612;83;22023;-66
2021/12/07 13:04:16;;;;;;;5.57;3.50;;;;;;;1.36;93.41;99674.45;1638594;86;21033;-65
2021/12/07 13:07:01;;;;;;;4.10;3.70;;;;;;;1.39;93.55;99665.45;1624605;86;21042;-65
2021/12/07 13:09:30;;;;;;;3.17;2.97;;;;;;;1.37;93.27;99670.84;1622580;86;22366;-66
2021/12/07 13:12:07;;;;;;;3.33;3.03;;;;;;;1.38;93.48;99679.56;1653782;84;21064;-65
2021/12/07 13:14:41;;;;;;;3.08;2.83;;;;;;;1.40;93.23;99688.13;1695294;84;21016;-66
2021/12/07 13:17:34;;;;;;;3.83;3.43;;;;;;;1.33;92.82;99689.99;1672689;84;21050;-66
2021/12/07 13:20:32;;;;;;;6.87;3.37;;;;;;;1.29;93.06;99688.63;1683356;84;21134;-65
2021/12/07 13:23:10;;;;;;;5.33;4.50;;;;;;;1.25;93.32;99692.52;1681133;84;21043;-64
2021/12/07 13:25:48;;;;;;;3.58;3.27;;;;;;;1.22;92.96;99704.61;1687370;83;21007;-65
2021/12/07 13:28:32;;;;;;;4.13;3.73;;;;;;;1.11;92.89;99700.39;1674522;85;21022;-65
2021/12/07 13:31:17;;;;;;;2.47;2.30;;;;;;;1.09;93.30;99688.36;1684924;83;21069;-65
2021/12/07 13:33:54;;;;;;;3.63;3.30;;;;;;;1.09;93.42;99675.23;1689819;83;21050;-67